Time;durP1;ratioP1;P1;durP2;ratioP2;P2;SDS_P1;SDS_P2;PMS_P1;PMS_P2;Temp;Humidity;BMP_temperature;BMP_pressure;BME280_temperature;BME280_humidity;BME280_pressure;Samples;Min_cycle;Max_cycle;Signal;HPM_P1;HPM_P2
2023/07/04 00:01:15;;;;;;;5.40;3.88;;;19.70;73.20;;;;;;5056263;28;20024;-75
2023/07/04 00:03:44;;;;;;;6.22;4.00;;;19.70;73.10;;;;;;5062023;28;20032;-75
2023/07/04 00:06:12;;;;;;;4.10;3.38;;;19.70;73.00;;;;;;5066147;28;20025;-75
2023/07/04 00:08:38;;;;;;;6.20;3.90;;;19.70;73.10;;;;;;5053817;28;20474;-75
2023/07/04 00:11:06;;;;;;;5.32;3.35;;;19.70;73.20;;;;;;5053436;28;20474;-75
2023/07/04 00:13:33;;;;;;;3.88;3.28;;;19.70;73.30;;;;;;5054004;28;20059;-74
2023/07/04 00:15:59;;;;;;;3.22;2.92;;;19.60;73.30;;;;;;5054504;28;20021;-76
2023/07/04 00:18:27;;;;;;;3.88;3.50;;;19.70;73.50;;;;;;5053510;28;20025;-75
2023/07/04 00:20:56;;;;;;;4.07;3.28;;;19.70;73.30;;;;;;5053500;28;20021;-75
2023/07/04 00:23:26;;;;;;;3.65;3.13;;;19.70;73.20;;;;;;5054419;28;20031;-75
2023/07/04 00:25:52;;;;;;;2.88;2.65;;;19.70;73.10;;;;;;5053791;28;20029;-75
2023/07/04 00:28:21;;;;;;;4.40;3.25;;;19.70;73.20;;;;;;5055441;28;20036;-74
2023/07/04 00:30:47;;;;;;;3.20;2.90;;;19.60;73.20;;;;;;5057820;28;20115;-74
2023/07/04 00:33:13;;;;;;;3.65;2.90;;;19.60;73.40;;;;;;5060708;28;20530;-75
2023/07/04 00:35:40;;;;;;;7.80;3.92;;;19.50;73.40;;;;;;5065166;28;20029;-75
2023/07/04 00:38:05;;;;;;;4.28;3.17;;;19.50;73.70;;;;;;5056954;28;20041;-76
2023/07/04 00:40:31;;;;;;;4.60;3.33;;;19.40;73.90;;;;;;5044173;28;20106;-75
2023/07/04 00:43:03;;;;;;;5.03;3.58;;;19.20;74.20;;;;;;5053776;28;20028;-74
2023/07/04 00:45:31;;;;;;;4.90;3.70;;;19.20;74.60;;;;;;5053528;28;20024;-77
2023/07/04 00:48:03;;;;;;;6.82;4.07;;;19.10;74.90;;;;;;5052796;28;20025;-75
2023/07/04 00:50:34;;;;;;;8.38;4.18;;;19.10;75.30;;;;;;5047878;28;20017;-75
2023/07/04 00:53:05;;;;;;;6.15;4.45;;;19.00;75.60;;;;;;5055004;28;20051;-75
2023/07/04 00:55:33;;;;;;;8.45;3.60;;;19.00;75.70;;;;;;5055147;28;20017;-75
2023/07/04 00:58:04;;;;;;;4.65;3.60;;;19.00;75.70;;;;;;5055504;28;20024;-74
2023/07/04 01:00:31;;;;;;;4.60;3.90;;;19.00;75.70;;;;;;5058904;28;20025;-74
2023/07/04 01:03:05;;;;;;;4.03;3.45;;;19.10;75.60;;;;;;5061052;28;20031;-75
2023/07/04 01:05:41;;;;;;;6.57;4.15;;;19.10;75.60;;;;;;5074476;28;20033;-75
2023/07/04 01:08:32;;;;;;;6.22;3.70;;;19.00;75.50;;;;;;5066738;28;20033;-74
2023/07/04 01:11:01;;;;;;;4.30;3.42;;;19.00;75.50;;;;;;5056920;28;20059;-75
2023/07/04 01:13:28;;;;;;;6.53;3.65;;;19.10;75.80;;;;;;5057371;28;20551;-74
2023/07/04 01:15:54;;;;;;;3.90;3.30;;;19.00;75.70;;;;;;5054087;28;20029;-74
2023/07/04 01:18:20;;;;;;;3.70;3.00;;;19.00;75.70;;;;;;5053833;28;20486;-74
2023/07/04 01:20:48;;;;;;;4.65;3.75;;;19.10;75.80;;;;;;5053628;28;20021;-75
2023/07/04 01:23:31;;;;;;;5.47;3.58;;;19.10;75.60;;;;;;5053233;28;20025;-75
2023/07/04 01:26:13;;;;;;;5.25;3.78;;;19.10;75.30;;;;;;5052936;28;20052;-74
2023/07/04 01:28:41;;;;;;;3.80;3.38;;;19.10;75.10;;;;;;5053186;28;20557;-75
2023/07/04 01:31:07;;;;;;;5.05;3.85;;;19.10;75.20;;;;;;5054277;28;20496;-76
2023/07/04 01:33:33;;;;;;;5.95;3.67;;;19.10;75.30;;;;;;5061896;28;20035;-76
2023/07/04 01:35:59;;;;;;;9.50;4.80;;;19.20;75.30;;;;;;5069907;28;20103;-75
2023/07/04 01:38:24;;;;;;;5.18;3.58;;;19.20;75.30;;;;;;5057358;28;20056;-76
2023/07/04 01:40:50;;;;;;;4.65;3.20;;;19.20;75.30;;;;;;5053837;28;20032;-74
2023/07/04 01:43:17;;;;;;;5.40;3.70;;;19.10;75.30;;;;;;5054752;28;20017;-75
2023/07/04 01:45:45;;;;;;;4.63;3.53;;;19.10;75.50;;;;;;5054401;28;20029;-75
2023/07/04 01:48:12;;;;;;;4.18;3.47;;;19.10;75.60;;;;;;5052786;28;20021;-75
2023/07/04 01:50:38;;;;;;;4.70;3.55;;;19.00;75.80;;;;;;5055937;28;20025;-76
2023/07/04 01:53:04;;;;;;;5.90;3.25;;;18.90;76.10;;;;;;5059178;28;20017;-75
2023/07/04 01:55:29;;;;;;;5.45;3.38;;;18.90;76.10;;;;;;5057142;28;20036;-75
2023/07/04 01:57:55;;;;;;;5.32;3.50;;;18.90;76.30;;;;;;5056300;28;20129;-75
2023/07/04 02:00:22;;;;;;;6.53;3.40;;;18.90;76.30;;;;;;5056582;28;20116;-75
2023/07/04 02:02:47;;;;;;;5.55;3.55;;;18.90;76.50;;;;;;5042771;28;20032;-75
2023/07/04 02:05:15;;;;;;;8.02;3.55;;;18.90;76.60;;;;;;5067226;28;20601;-74
2023/07/04 02:07:41;;;;;;;6.22;3.58;;;18.80;76.60;;;;;;5060532;28;20020;-75
2023/07/04 02:10:07;;;;;;;6.68;3.95;;;18.80;76.90;;;;;;5056896;28;20493;-75
2023/07/04 02:12:33;;;;;;;4.63;3.03;;;18.70;76.90;;;;;;5055213;28;20543;-76
2023/07/04 02:14:58;;;;;;;4.07;3.17;;;18.70;77.10;;;;;;5065515;28;20032;-76
2023/07/04 02:17:24;;;;;;;8.75;4.55;;;18.60;77.30;;;;;;5069537;28;20027;-75
2023/07/04 02:19:50;;;;;;;8.02;3.58;;;18.60;77.60;;;;;;5056999;28;20504;-75
2023/07/04 02:22:15;;;;;;;6.80;3.80;;;18.60;77.80;;;;;;5057437;28;20052;-75
2023/07/04 02:24:41;;;;;;;5.15;3.25;;;18.50;78.00;;;;;;5057307;28;20029;-74
2023/07/04 02:27:07;;;;;;;4.88;3.50;;;18.50;78.50;;;;;;5056771;28;20021;-74
2023/07/04 02:29:32;;;;;;;4.05;3.00;;;18.40;78.80;;;;;;5056917;28;20037;-75
2023/07/04 02:31:58;;;;;;;6.45;3.60;;;18.40;79.10;;;;;;5057635;28;20025;-74
2023/07/04 02:34:24;;;;;;;6.00;3.83;;;18.40;80.00;;;;;;5064614;28;20040;-75
2023/07/04 02:36:49;;;;;;;4.70;3.33;;;18.30;81.00;;;;;;5069647;28;20033;-74
2023/07/04 02:39:15;;;;;;;6.00;3.05;;;18.20;82.00;;;;;;5057308;28;20029;-74
2023/07/04 02:41:40;;;;;;;5.10;2.80;;;18.10;83.00;;;;;;5056587;28;20029;-75
2023/07/04 02:44:06;;;;;;;4.88;3.10;;;17.90;83.90;;;;;;5056541;28;20021;-75
2023/07/04 02:46:32;;;;;;;5.97;3.45;;;17.80;85.10;;;;;;5056571;28;20488;-74
2023/07/04 02:48:57;;;;;;;5.25;3.47;;;17.70;86.10;;;;;;5057949;28;20033;-75
2023/07/04 02:51:23;;;;;;;3.75;2.63;;;17.60;87.00;;;;;;5055765;28;20032;-73
2023/07/04 02:53:49;;;;;;;4.50;3.10;;;17.60;87.70;;;;;;5054325;28;20061;-74
2023/07/04 02:56:14;;;;;;;4.55;3.20;;;17.60;88.40;;;;;;5057563;28;20029;-74
2023/07/04 02:58:40;;;;;;;6.90;3.15;;;17.60;88.90;;;;;;5058704;28;20393;-74
2023/07/04 03:01:07;;;;;;;5.95;3.33;;;17.60;89.60;;;;;;5055667;28;20025;-73
2023/07/04 03:03:32;;;;;;;4.88;3.25;;;17.60;90.00;;;;;;5065428;28;20017;-73
2023/07/04 03:06:00;;;;;;;5.32;3.03;;;17.50;90.30;;;;;;5070905;28;20038;-74
2023/07/04 03:08:25;;;;;;;6.20;3.95;;;17.50;90.70;;;;;;5060695;28;20033;-73
2023/07/04 03:10:51;;;;;;;8.52;3.65;;;17.50;91.10;;;;;;5060769;28;20037;-72
2023/07/04 03:13:17;;;;;;;6.75;4.25;;;17.40;91.70;;;;;;5057494;28;20041;-73
2023/07/04 03:15:42;;;;;;;5.18;3.30;;;17.30;92.10;;;;;;5057346;28;20116;-74
2023/07/04 03:18:08;;;;;;;5.05;3.45;;;17.20;92.60;;;;;;5074195;28;20040;-72
2023/07/04 03:20:34;;;;;;;8.18;4.10;;;17.10;93.20;;;;;;5066893;28;20017;-74
2023/07/04 03:23:00;;;;;;;5.15;2.65;;;17.00;93.80;;;;;;5058880;28;20021;-72
2023/07/04 03:25:25;;;;;;;5.00;3.42;;;16.90;94.40;;;;;;5059761;28;20023;-74
2023/07/04 03:27:51;;;;;;;5.65;2.83;;;16.80;94.90;;;;;;5059481;28;20387;-74
2023/07/04 03:30:17;;;;;;;3.65;2.88;;;16.80;95.40;;;;;;5060656;28;20032;-75
2023/07/04 03:32:43;;;;;;;5.05;3.08;;;16.80;95.70;;;;;;5063822;28;20047;-75
2023/07/04 03:35:09;;;;;;;4.05;2.70;;;16.80;96.00;;;;;;5073103;28;20043;-75
2023/07/04 03:37:36;;;;;;;3.17;2.45;;;16.80;96.30;;;;;;5064896;28;20029;-76
2023/07/04 03:40:08;;;;;;;2.70;2.10;;;16.80;96.60;;;;;;5059966;28;20048;-76
2023/07/04 03:42:34;;;;;;;;;;;16.90;96.70;;;;;;5041456;28;20025;-75
2023/07/04 03:45:00;;;;;;;3.05;2.75;;;17.00;96.70;;;;;;5057105;28;19909;-75
2023/07/04 03:47:25;;;;;;;4.30;2.47;;;17.00;96.60;;;;;;5055337;28;20092;-75
2023/07/04 03:49:51;;;;;;;2.67;2.00;;;17.00;96.70;;;;;;5055035;28;20087;-76
2023/07/04 03:52:17;;;;;;;2.20;2.00;;;17.00;96.60;;;;;;5057541;28;20029;-77
2023/07/04 03:54:42;;;;;;;3.00;1.70;;;17.00;96.70;;;;;;5061045;28;20227;-75
2023/07/04 03:57:09;;;;;;;2.72;1.90;;;17.00;96.70;;;;;;5055877;28;20095;-75
2023/07/04 03:59:35;;;;;;;2.20;2.00;;;17.10;96.80;;;;;;5057425;28;20108;-75
2023/07/04 04:02:01;;;;;;;4.13;2.08;;;17.10;96.70;;;;;;5057578;28;20047;-75
2023/07/04 04:04:26;;;;;;;3.70;2.35;;;17.10;96.70;;;;;;5062840;28;20473;-75
2023/07/04 04:06:56;;;;;;;6.18;2.85;;;17.20;96.70;;;;;;5073762;28;20024;-75
2023/07/04 04:09:22;;;;;;;2.95;2.47;;;17.20;96.70;;;;;;5058750;28;20205;-75
2023/07/04 04:11:49;;;;;;;3.05;2.10;;;17.30;96.70;;;;;;5055221;28;20473;-75
2023/07/04 04:14:14;;;;;;;2.35;2.15;;;17.40;96.60;;;;;;5058456;28;20024;-75
2023/07/04 04:16:40;;;;;;;4.38;2.42;;;17.50;96.40;;;;;;5059170;28;20025;-75
2023/07/04 04:19:06;;;;;;;4.43;2.53;;;17.70;96.00;;;;;;5062881;28;20041;-74
2023/07/04 04:21:31;;;;;;;4.50;2.25;;;17.70;95.60;;;;;;5062614;28;20025;-75
2023/07/04 04:23:57;;;;;;;3.97;2.85;;;17.70;95.50;;;;;;5063311;28;20021;-75
2023/07/04 04:26:23;;;;;;;2.40;2.13;;;17.70;95.60;;;;;;5062404;28;20141;-74
2023/07/04 04:28:49;;;;;;;3.60;2.47;;;17.80;95.60;;;;;;5064547;28;20020;-75
2023/07/04 04:31:15;;;;;;;3.53;2.50;;;17.90;95.40;;;;;;5067231;28;20025;-75
2023/07/04 04:33:41;;;;;;;2.20;2.00;;;17.90;95.40;;;;;;5056446;28;20505;-75
2023/07/04 04:36:07;;;;;;;2.28;1.80;;;17.90;95.60;;;;;;5056072;28;20142;-76
2023/07/04 04:38:33;;;;;;;3.75;2.25;;;17.80;95.60;;;;;;5053406;28;20067;-76
2023/07/04 04:41:03;;;;;;;1.80;1.70;;;17.90;95.70;;;;;;5054281;28;20028;-75
2023/07/04 04:43:32;;;;;;;2.90;1.88;;;17.90;95.60;;;;;;5055907;28;20110;-75
2023/07/04 04:45:59;;;;;;;2.85;1.80;;;18.10;95.30;;;;;;5054363;28;20470;-76
2023/07/04 04:48:29;;;;;;;3.33;2.50;;;18.10;95.20;;;;;;5060268;28;20104;-74
2023/07/04 04:50:59;;;;;;;2.30;2.03;;;18.20;95.00;;;;;;5057123;28;20025;-75
2023/07/04 04:53:26;;;;;;;2.78;2.17;;;;;;;;;;5054572;28;20040;-74
2023/07/04 04:55:52;;;;;;;2.20;2.00;;;;;;;;;;5053780;28;20047;-76
2023/07/04 04:58:19;;;;;;;2.13;1.77;;;;;;;;;;5053913;28;20028;-76
2023/07/04 05:00:45;;;;;;;1.55;1.40;;;;;;;;;;5056492;28;20033;-76
2023/07/04 05:03:13;;;;;;;2.40;1.80;;;;;;;;;;5058390;28;20051;-77
2023/07/04 05:05:39;;;;;;;2.33;1.60;;;;;;;;;;5065264;28;20326;-75
2023/07/04 05:08:05;;;;;;;1.90;1.50;;;;;;;;;;5074135;28;20055;-75
2023/07/04 05:10:31;;;;;;;1.83;1.70;;;;;;;;;;5067076;28;20029;-75
2023/07/04 05:12:58;;;;;;;1.88;1.40;;;;;;;;;;5035585;28;20056;-75
2023/07/04 05:15:24;;;;;;;1.85;1.50;;;;;;;;;;5053822;28;20080;-76
2023/07/04 05:17:50;;;;;;;1.85;1.63;;;;;;;;;;5058033;28;20049;-76
2023/07/04 05:20:22;;;;;;;3.90;1.90;;;;;;;;;;5057270;28;20033;-76
2023/07/04 05:22:49;;;;;;;1.60;1.50;;;;;;;;;;5058081;28;20021;-76
2023/07/04 05:25:15;;;;;;;2.13;1.92;;;;;;;;;;5056872;28;20021;-77
2023/07/04 05:27:41;;;;;;;2.38;1.48;;;;;;;;;;5058597;28;20044;-76
2023/07/04 05:30:09;;;;;;;2.35;1.67;;;;;;;;;;5057415;28;20021;-75
2023/07/04 05:32:35;;;;;;;2.40;1.65;;;;;;;;;;5057144;28;20392;-77
2023/07/04 05:35:01;;;;;;;1.90;1.35;;;;;;;;;;5068702;28;20062;-74
2023/07/04 05:37:28;;;;;;;2.33;1.30;;;;;;;;;;5077449;28;20040;-75
2023/07/04 05:39:54;;;;;;;2.38;1.52;;;;;;;;;;5065423;28;20053;-76
2023/07/04 05:42:20;;;;;;;1.67;1.48;;;;;;;;;;5057056;28;20036;-75
2023/07/04 05:44:46;;;;;;;1.80;1.38;;;;;;;;;;5057125;28;20075;-76
2023/07/04 05:47:13;;;;;;;1.63;1.40;;;;;;;;;;5054726;28;20029;-76
2023/07/04 05:49:39;;;;;;;1.58;1.30;;;;;;;;;;5055779;28;20096;-75
2023/07/04 05:52:05;;;;;;;1.83;1.58;;;;;;;;;;5056275;28;20393;-75
2023/07/04 05:54:31;;;;;;;1.40;1.30;;;;;;;;;;5054499;28;20068;-76
2023/07/04 05:56:57;;;;;;;1.70;1.33;;;;;;;;;;5056940;28;20159;-76
2023/07/04 05:59:23;;;;;;;0.75;0.75;;;;;;;;;;5055080;28;20075;-76
2023/07/04 06:01:53;;;;;;;1.77;1.23;;;;;;;;;;5037338;28;20029;-74
2023/07/04 06:04:19;;;;;;;1.40;1.10;;;;;;;;;;5065275;28;20358;-76
2023/07/04 06:06:54;;;;;;;1.73;1.30;;;;;;;;;;5072972;28;20020;-75
2023/07/04 06:09:22;;;;;;;1.20;1.10;;;;;;;;;;5075537;28;20027;-75
2023/07/04 06:11:48;;;;;;;1.48;1.38;;;;;;;;;;5056871;28;20397;-76
2023/07/04 06:14:27;;;;;;;1.10;1.00;;;;;;;;;;5057310;28;20025;-75
2023/07/04 06:16:55;;;;;;;1.35;1.02;;;;;;;;;;5057086;28;20066;-76
2023/07/04 06:19:21;;;;;;;1.48;1.38;;;;;;;;;;5059722;28;20124;-75
2023/07/04 06:21:47;;;;;;;1.52;1.33;;;;;;;;;;5055801;28;20051;-75
2023/07/04 06:24:15;;;;;;;1.58;1.27;;;;;;;;;;5066866;28;20013;-75
2023/07/04 06:26:41;;;;;;;3.00;1.33;;;;;;;;;;5071979;28;20009;-77
2023/07/04 06:29:07;;;;;;;1.42;1.33;;;;;;;;;;5070481;28;20025;-74
2023/07/04 06:31:33;;;;;;;1.50;1.40;;;;;;;;;;5069190;28;20086;-76
2023/07/04 06:34:00;;;;;;;1.27;1.17;;;;;;;;;;5060245;28;20033;-76
2023/07/04 06:36:26;;;;;;;1.38;1.20;;;;;;;;;;5074666;28;20024;-75
2023/07/04 06:38:52;;;;;;;1.10;1.10;;;;;;;;;;5080606;28;20028;-75
2023/07/04 06:41:19;;;;;;;1.35;1.25;;;;;;;;;;5074755;28;20013;-74
2023/07/04 06:43:46;;;;;;;1.75;1.40;;;;;;;;;;5061617;28;20017;-75
2023/07/04 06:46:12;;;;;;;1.45;0.95;;;;;;;;;;5061673;28;20031;-75
2023/07/04 06:48:38;;;;;;;2.25;1.13;;;;;;;;;;5069802;28;20103;-76
2023/07/04 06:51:06;;;;;;;1.92;1.27;;;;;;;;;;5065716;28;20028;-75
2023/07/04 06:53:34;;;;;;;0.85;0.85;;;;;;;;;;5060017;28;20029;-75
2023/07/04 06:56:04;;;;;;;1.85;1.17;;;;;;;;;;5060581;28;20491;-75
2023/07/04 06:58:30;;;;;;;1.00;0.90;;;;;;;;;;5061414;28;20084;-75
2023/07/04 07:00:56;;;;;;;1.08;0.98;;;;;;;;;;5061260;28;20025;-77
2023/07/04 07:03:23;;;;;;;1.42;1.33;;;;;;;;;;5069931;28;20020;-75
2023/07/04 07:05:49;;;;;;;1.50;1.30;;;;;;;;;;5074398;28;20025;-75
2023/07/04 07:08:16;;;;;;;1.50;1.40;;;;;;;;;;5080372;28;20191;-75
2023/07/04 07:11:02;;;;;;;2.00;1.40;;;;;;;;;;5063221;28;20842;-75
2023/07/04 07:13:29;;;;;;;1.10;1.10;;;;;;;;;;5064377;28;20102;-76
2023/07/04 07:16:25;;;;;;;1.30;1.20;;;;;;;;;;5041335;28;20029;-76
2023/07/04 07:18:52;;;;;;;0.82;0.82;;;;;;;;;;5051719;28;20045;-75
2023/07/04 07:21:20;;;;;;;0.93;0.93;;;;;;;;;;5060596;28;20044;-76
2023/07/04 07:23:46;;;;;;;2.33;1.15;;;;;;;;;;5058844;28;20044;-76
2023/07/04 07:26:13;;;;;;;1.30;1.20;;;;;;;;;;5060107;28;20029;-75
2023/07/04 07:28:40;;;;;;;1.52;1.40;;;;;;;;;;5059526;28;20036;-76
2023/07/04 07:31:09;;;;;;;1.50;1.30;;;;;;;;;;5061017;28;20045;-76
2023/07/04 07:33:36;;;;;;;1.25;1.15;;;;;;;;;;5041297;28;20029;-76
2023/07/04 07:36:12;;;;;;;1.77;1.58;;;;;;;;;;5065999;28;20096;-75
2023/07/04 07:38:38;;;;;;;1.10;1.05;;;;;;;;;;5084051;28;20024;-73
2023/07/04 07:41:05;;;;;;;1.67;1.25;;;;;;;;;;5086866;28;20020;-75
2023/07/04 07:43:31;;;;;;;1.40;1.30;;;;;;;;;;5079058;28;20497;-76
2023/07/04 07:45:57;;;;;;;1.30;1.20;;;;;;;;;;5063446;28;20077;-76
2023/07/04 07:48:29;;;;;;;1.38;1.27;;;;;;;;;;5066891;28;20020;-75
2023/07/04 07:50:55;;;;;;;1.23;1.13;;;;;;;;;;5063558;28;20020;-75
2023/07/04 07:53:21;;;;;;;1.00;0.90;;;;;;;;;;5061810;28;20047;-75
2023/07/04 07:55:47;;;;;;;1.10;1.00;;;;;;;;;;5042512;28;20021;-75
2023/07/04 07:58:13;;;;;;;1.30;1.20;;;;;;;;;;5041666;28;20032;-76
2023/07/04 08:00:40;;;;;;;0.90;0.90;;;;;;;;;;5062803;28;20037;-76
2023/07/04 08:03:07;;;;;;;1.55;1.15;;;;;;;;;;5043688;28;20040;-76
2023/07/04 08:05:37;;;;;;;1.83;1.42;;;;;;;;;;5068622;28;20384;-74
2023/07/04 08:08:04;;;;;;;1.03;1.03;;;;;;;;;;5059539;28;20032;-75
2023/07/04 08:10:30;;;;;;;1.40;0.98;;;;;;;;;;5063160;28;20033;-76
2023/07/04 08:12:56;;;;;;;1.40;1.30;;;;;;;;;;5063872;28;20111;-74
2023/07/04 08:15:22;;;;;;;2.08;1.70;;;;;;;;;;5062456;28;20029;-75
2023/07/04 08:17:48;;;;;;;2.22;1.40;;;;;;;;;;5064028;28;20021;-74
2023/07/04 08:20:14;;;;;;;2.42;1.33;;;;;;;;;;5047783;28;20052;-75
2023/07/04 08:22:40;;;;;;;2.88;1.40;;;;;;;;;;5062378;28;20021;-76
2023/07/04 08:25:06;;;;;;;1.58;1.48;;;;;;;;;;5058908;28;20072;-76
2023/07/04 08:27:33;;;;;;;1.40;1.30;;;;;;;;;;5061259;28;20108;-76
2023/07/04 08:29:59;;;;;;;2.25;1.50;;;;;;;;;;5057717;28;20029;-75
2023/07/04 08:32:25;;;;;;;1.75;1.60;;;;;;;;;;5057671;28;20024;-75
2023/07/04 08:34:51;;;;;;;1.63;1.52;;;;;;;;;;5064389;28;20036;-75
2023/07/04 08:37:17;;;;;;;2.95;1.60;;;;;;;;;;5055065;28;20021;-75
2023/07/04 08:39:46;;;;;;;1.85;1.52;;;;;;;;;;5054922;28;20028;-76
2023/07/04 08:42:13;;;;;;;1.65;1.33;;;;;;;;;;5055761;28;20462;-75
2023/07/04 08:44:42;;;;;;;1.83;1.45;;;;;;;;;;5055129;28;20033;-76
2023/07/04 08:47:10;;;;;;;1.40;1.30;;;;;;;;;;5058136;28;20021;-75
2023/07/04 08:49:45;;;;;;;1.45;1.35;;;;;;;;;;5038690;28;20039;-77
2023/07/04 08:52:28;;;;;;;1.45;1.35;;;;;;;;;;5056864;28;20044;-75
2023/07/04 08:54:54;;;;;;;1.48;1.40;;;;;;;;;;5056859;28;20040;-76
2023/07/04 08:57:33;;;;;;;1.65;1.20;;;;;;;;;;5056209;28;20029;-76
2023/07/04 09:00:08;;;;;;;1.60;1.50;;;;;;;;;;5057615;28;20033;-76
2023/07/04 09:02:54;;;;;;;2.00;1.48;;;;;;;;;;5059504;28;20044;-75
2023/07/04 09:05:29;;;;;;;1.67;1.58;;;;;;;;;;5041934;28;20028;-75
2023/07/04 09:08:14;;;;;;;1.50;1.33;;;;;;;;;;5057808;28;20023;-75
2023/07/04 09:10:42;;;;;;;2.72;1.67;;;;;;;;;;5059125;28;20087;-75
2023/07/04 09:13:15;;;;;;;1.42;1.33;;;;;;;;;;5056589;28;20128;-76
2023/07/04 09:15:43;;;;;;;1.60;1.50;;;;;;;;;;5054861;28;20037;-77
2023/07/04 09:18:09;;;;;;;1.73;1.23;;;;;;;;;;5057232;28;20029;-77
2023/07/04 09:20:44;;;;;;;1.40;1.30;;;;;;;;;;5055259;28;20112;-76
2023/07/04 09:23:13;;;;;;;2.92;1.70;;;;;;;;;;5056779;28;20084;-75
2023/07/04 09:25:40;;;;;;;2.80;1.95;;;24.40;63.80;;;;;;5055078;28;20105;-75
2023/07/04 09:28:05;;;;;;;1.58;1.48;;;24.30;63.70;;;;;;5056870;28;20137;-76
2023/07/04 09:30:32;;;;;;;2.50;2.30;;;24.30;64.20;;;;;;5057665;28;20033;-76
2023/07/04 09:32:58;;;;;;;2.20;1.88;;;24.50;63.30;;;;;;5056567;28;20031;-76
2023/07/04 09:35:24;;;;;;;1.70;1.60;;;24.40;62.90;;;;;;5059498;28;20613;-76
2023/07/04 09:37:58;;;;;;;1.80;1.70;;;24.40;63.00;;;;;;5055930;28;20029;-76
2023/07/04 09:40:50;;;;;;;2.03;1.63;;;24.60;62.60;;;;;;5053885;28;20037;-76
2023/07/04 09:43:31;;;;;;;2.05;1.88;;;24.80;61.00;;;;;;5054008;28;20080;-77
2023/07/04 09:46:26;;;;;;;1.77;1.67;;;24.90;60.20;;;;;;5036086;28;20032;-75
2023/07/04 09:48:53;;;;;;;1.75;1.65;;;24.50;60.20;;;;;;5016797;28;20029;-76
2023/07/04 09:51:26;;;;;;;1.75;1.65;;;24.20;60.90;;;;;;5033450;28;20034;-75
2023/07/04 09:54:14;;;;;;;1.48;1.38;;;24.20;61.80;;;;;;5035279;28;20026;-76
2023/07/04 09:56:41;;;;;;;2.30;1.58;;;24.40;61.70;;;;;;5037258;28;20427;-75
2023/07/04 09:59:29;;;;;;;2.50;1.83;;;24.70;60.40;;;;;;5037586;28;20029;-75
2023/07/04 10:02:25;;;;;;;2.53;1.83;;;24.90;59.60;;;;;;5057048;28;20029;-76
2023/07/04 10:04:51;;;;;;;2.65;2.08;;;25.10;58.90;;;;;;5067644;28;20062;-75
2023/07/04 10:07:21;;;;;;;1.70;1.48;;;25.30;58.40;;;;;;5076280;28;20482;-75
2023/07/04 10:09:59;;;;;;;2.08;1.85;;;25.40;58.00;;;;;;5075711;28;20111;-75
2023/07/04 10:12:28;;;;;;;1.67;1.58;;;25.40;58.30;;;;;;5079933;28;20113;-76
2023/07/04 10:14:57;;;;;;;2.70;1.80;;;25.50;58.20;;;;;;5042082;28;20124;-74
2023/07/04 10:17:32;;;;;;;2.83;1.88;;;25.80;58.20;;;;;;5039900;28;20034;-76
2023/07/04 10:20:05;;;;;;;2.28;2.08;;;26.10;57.60;;;;;;5039636;28;20018;-75
2023/07/04 10:22:32;;;;;;;3.63;2.20;;;26.30;56.70;;;;;;5022417;28;20300;-76
2023/07/04 10:24:59;;;;;;;4.20;2.95;;;26.10;57.00;;;;;;5058276;28;20017;-75
2023/07/04 10:27:34;;;;;;;2.78;2.38;;;25.70;57.80;;;;;;5061856;28;20029;-75
2023/07/04 10:30:06;;;;;;;2.80;2.53;;;25.30;58.80;;;;;;5060054;28;20025;-76
2023/07/04 10:32:43;;;;;;;3.88;2.10;;;25.30;59.00;;;;;;5058711;28;20520;-77
2023/07/04 10:35:18;;;;;;;1.90;1.80;;;25.20;58.90;;;;;;5060201;28;20098;-76
2023/07/04 10:37:48;;;;;;;3.58;2.45;;;25.10;59.50;;;;;;5059531;28;20338;-76
2023/07/04 10:40:16;;;;;;;3.47;2.40;;;25.20;58.90;;;;;;5059801;28;20078;-75
2023/07/04 10:42:52;;;;;;;3.50;2.50;;;25.00;59.20;;;;;;5057623;28;20029;-75
2023/07/04 10:45:19;;;;;;;2.90;2.30;;;24.70;60.10;;;;;;5058983;28;20619;-76
2023/07/04 10:47:47;;;;;;;4.95;2.90;;;24.50;60.00;;;;;;5058410;28;20100;-76
2023/07/04 10:50:36;;;;;;;3.90;2.60;;;24.50;60.90;;;;;;5065371;28;20028;-75
2023/07/04 10:53:02;;;;;;;2.85;2.13;;;24.80;60.50;;;;;;5070289;28;20064;-75
2023/07/04 10:55:37;;;;;;;2.38;2.13;;;25.20;59.20;;;;;;5068552;28;20045;-76
2023/07/04 10:58:14;;;;;;;2.40;2.10;;;25.50;57.80;;;;;;5069528;28;20057;-75
2023/07/04 11:00:47;;;;;;;4.65;2.80;;;25.80;57.40;;;;;;5063951;28;20427;-75
2023/07/04 11:03:20;;;;;;;4.10;2.63;;;26.00;56.00;;;;;;5067825;28;20024;-74
2023/07/04 11:05:49;;;;;;;2.63;1.95;;;26.10;55.90;;;;;;5074699;28;20031;-74
2023/07/04 11:08:18;;;;;;;2.95;2.15;;;26.00;56.30;;;;;;5091873;22;20420;-76
2023/07/04 11:10:51;;;;;;;3.70;2.80;;;26.00;56.40;;;;;;5038523;28;20379;-77
2023/07/04 11:13:19;;;;;;;3.05;2.47;;;26.10;56.40;;;;;;5079146;28;20028;-76
2023/07/04 11:15:54;;;;;;;3.05;2.35;;;26.40;56.30;;;;;;5080872;28;20025;-77
2023/07/04 11:18:26;;;;;;;2.72;2.25;;;26.80;55.40;;;;;;5077492;28;20078;-77
2023/07/04 11:21:03;;;;;;;2.67;2.17;;;27.30;54.40;;;;;;5076221;28;20024;-76
2023/07/04 11:23:46;;;;;;;2.42;2.20;;;27.60;52.80;;;;;;5074060;28;20365;-77
2023/07/04 11:26:12;;;;;;;2.90;2.38;;;27.70;51.90;;;;;;5075218;28;20074;-77
2023/07/04 11:28:38;;;;;;;2.95;2.25;;;27.50;52.00;;;;;;5075428;28;20037;-77
2023/07/04 11:31:21;;;;;;;2.95;2.65;;;27.40;52.80;;;;;;5057165;28;20016;-76
2023/07/04 11:33:52;;;;;;;2.97;2.28;;;27.30;52.30;;;;;;5081616;28;20021;-77
2023/07/04 11:36:45;;;;;;;4.40;2.90;;;27.20;52.90;;;;;;5092760;28;20085;-77
2023/07/04 11:39:36;;;;;;;3.70;2.67;;;27.30;52.10;;;;;;5095459;28;20491;-78
2023/07/04 11:42:18;;;;;;;2.63;2.40;;;27.30;52.00;;;;;;5096064;28;20027;-77
2023/07/04 11:44:56;;;;;;;5.38;3.30;;;27.40;52.00;;;;;;5058901;28;20028;-78
2023/07/04 11:48:02;;;;;;;3.33;2.45;;;27.40;51.90;;;;;;5057426;28;20104;-77
2023/07/04 11:50:50;;;;;;;3.95;2.38;;;26.90;52.20;;;;;;5055635;28;20060;-76
2023/07/04 11:53:26;;;;;;;3.50;2.80;;;26.10;53.40;;;;;;5057484;28;20095;-77
2023/07/04 11:56:26;;;;;;;3.03;2.30;;;26.00;54.50;;;;;;5075450;28;20054;-77
2023/07/04 11:59:10;;;;;;;2.30;2.10;;;26.10;54.10;;;;;;5053060;28;20048;-77
2023/07/04 12:01:51;;;;;;;4.40;2.70;;;25.80;54.40;;;;;;5057732;28;20492;-76
2023/07/04 12:04:36;;;;;;;3.05;2.55;;;25.70;54.40;;;;;;5063561;28;20536;-77
2023/07/04 12:07:29;;;;;;;2.42;2.15;;;26.20;54.30;;;;;;5097160;28;20032;-77
2023/07/04 12:10:00;;;;;;;2.00;1.80;;;26.70;53.40;;;;;;5078664;28;20035;-77
2023/07/04 12:12:30;;;;;;;;;;;27.50;52.60;;;;;;5096867;28;20020;-77
2023/07/04 12:15:09;;;;;;;4.45;2.60;;;28.00;51.50;;;;;;5085756;28;19915;-76
2023/07/04 12:17:38;;;;;;;2.85;2.15;;;28.30;50.00;;;;;;5076636;28;20035;-76
2023/07/04 12:20:11;;;;;;;2.67;2.47;;;28.20;49.90;;;;;;5070935;28;20048;-77
2023/07/04 12:22:44;;;;;;;2.50;2.30;;;28.10;50.40;;;;;;5078867;28;20040;-76
2023/07/04 12:25:19;;;;;;;2.88;2.53;;;28.00;50.10;;;;;;5095110;28;20032;-77
2023/07/04 12:27:44;;;;;;;4.35;2.55;;;27.90;50.60;;;;;;5078255;28;20028;-76
2023/07/04 12:30:12;;;;;;;2.63;2.40;;;27.70;50.70;;;;;;5096147;28;20048;-77
2023/07/04 12:32:38;;;;;;;3.22;2.20;;;27.60;51.10;;;;;;5095909;28;20021;-77
2023/07/04 12:35:05;;;;;;;4.68;2.70;;;27.60;50.90;;;;;;5085251;28;20035;-77
2023/07/04 12:37:36;;;;;;;2.50;2.03;;;27.60;51.20;;;;;;5102289;28;20095;-76
2023/07/04 12:40:04;;;;;;;2.67;2.10;;;27.80;50.70;;;;;;5102068;28;20043;-76
2023/07/04 12:42:31;;;;;;;2.60;2.00;;;28.00;50.50;;;;;;5099326;28;20042;-77
2023/07/04 12:44:57;;;;;;;4.35;2.63;;;28.00;50.40;;;;;;5077091;28;20024;-77
2023/07/04 12:47:31;;;;;;;2.85;2.00;;;27.80;50.80;;;;;;5075962;28;20427;-76
2023/07/04 12:50:00;;;;;;;2.45;2.25;;;28.10;50.30;;;;;;5080571;28;20044;-76
2023/07/04 12:52:32;;;;;;;2.75;2.08;;;28.50;49.70;;;;;;5083243;28;20046;-77
2023/07/04 12:55:01;;;;;;;2.17;1.98;;;28.70;48.00;;;;;;5079149;28;20029;-77
2023/07/04 12:57:29;;;;;;;3.15;2.45;;;29.00;48.30;;;;;;5060616;28;20027;-77
2023/07/04 13:00:09;;;;;;;1.95;1.83;;;29.10;47.10;;;;;;5074059;28;20036;-76
2023/07/04 13:02:35;;;;;;;1.92;1.73;;;29.10;47.40;;;;;;5084981;28;20066;-77
2023/07/04 13:05:04;;;;;;;2.65;1.90;;;29.10;47.10;;;;;;5084328;28;20021;-76
2023/07/04 13:07:31;;;;;;;1.98;1.88;;;29.40;47.40;;;;;;5083344;28;20054;-77
2023/07/04 13:09:59;;;;;;;2.17;1.80;;;29.60;47.30;;;;;;5061830;28;20115;-76
2023/07/04 13:12:28;;;;;;;4.28;2.20;;;30.00;47.00;;;;;;5077394;28;20017;-77
2023/07/04 13:15:18;;;;;;;1.90;1.80;;;30.00;45.60;;;;;;5076424;28;20028;-77
2023/07/04 13:18:02;;;;;;;3.50;1.88;;;29.90;45.80;;;;;;5074519;28;20062;-76
2023/07/04 13:20:34;;;;;;;2.00;1.90;;;29.80;46.00;;;;;;5057178;28;20416;-77
2023/07/04 13:23:22;;;;;;;2.70;2.30;;;29.80;46.00;;;;;;5057611;28;20025;-77
2023/07/04 13:25:50;;;;;;;1.98;1.85;;;29.80;45.20;;;;;;5074130;28;20024;-77
2023/07/04 13:28:37;;;;;;;2.17;1.95;;;29.60;45.70;;;;;;5074862;28;20083;-77
2023/07/04 13:31:21;;;;;;;2.63;1.70;;;29.50;46.50;;;;;;5075105;28;20021;-77
2023/07/04 13:33:49;;;;;;;2.20;1.75;;;29.20;46.10;;;;;;5084887;28;20067;-76
2023/07/04 13:36:42;;;;;;;1.80;1.70;;;29.20;46.60;;;;;;5095093;28;20043;-77